SSL98K KDEN-KMCI
Flight info
| Callsign | SSL98K |
|---|---|
| Flight time | 1h 9m |
| Altitude | 36000 |
| Route | EMMYS8 ZIRKL DPEAK JSONN4 |
| Aircraft | A320/M-SDE3FGHIRWY/LB1 |
Departure
| Time | 2026-05-07 21:37 |
|---|---|
| Airport | Denver International Airport (KDEN) |
Arrival
| Time | 2026-05-07 22:47 |
|---|---|
| Airport | Kansas City International Airport (KMCI) |
| Time | Latitude | Longitude | Altitude | Speed | Heading |
|---|---|---|---|---|---|
| 2026-05-07 21:10 | 39.86348 | -104.67522 | 5375 ft | 0 kts | 181° |
| 2026-05-07 21:26 | 39.86354 | -104.67522 | 5370 ft | 3 kts | 181° |
| 2026-05-07 21:26 | 39.86372 | -104.67521 | 5373 ft | 3 kts | 181° |
| 2026-05-07 21:26 | 39.86390 | -104.67521 | 5371 ft | 2 kts | 181° |
| 2026-05-07 21:27 | 39.86408 | -104.67519 | 5370 ft | 3 kts | 204° |
| 2026-05-07 21:27 | 39.86422 | -104.67506 | 5369 ft | 3 kts | 240° |
| 2026-05-07 21:27 | 39.86427 | -104.67493 | 5369 ft | 0 kts | 261° |
| 2026-05-07 21:28 | 39.86426 | -104.67501 | 5370 ft | 3 kts | 255° |
| 2026-05-07 21:28 | 39.86417 | -104.67539 | 5370 ft | 5 kts | 263° |
| 2026-05-07 21:29 | 39.86416 | -104.67548 | 5370 ft | 0 kts | 264° |
| 2026-05-07 21:30 | 39.86416 | -104.67551 | 5370 ft | 1 kts | 263° |
| 2026-05-07 21:30 | 39.86416 | -104.67575 | 5370 ft | 4 kts | 269° |
| 2026-05-07 21:30 | 39.86416 | -104.67615 | 5372 ft | 5 kts | 269° |
| 2026-05-07 21:30 | 39.86416 | -104.67681 | 5371 ft | 10 kts | 270° |
| 2026-05-07 21:31 | 39.86417 | -104.67786 | 5370 ft | 13 kts | 271° |
| 2026-05-07 21:31 | 39.86421 | -104.67904 | 5368 ft | 12 kts | 272° |
| 2026-05-07 21:31 | 39.86419 | -104.68019 | 5369 ft | 13 kts | 269° |
| 2026-05-07 21:31 | 39.86421 | -104.68157 | 5366 ft | 18 kts | 274° |
| 2026-05-07 21:32 | 39.86427 | -104.68328 | 5365 ft | 19 kts | 272° |
| 2026-05-07 21:32 | 39.86421 | -104.68473 | 5365 ft | 13 kts | 243° |
| 2026-05-07 21:32 | 39.86342 | -104.68507 | 5367 ft | 13 kts | 181° |
| 2026-05-07 21:32 | 39.86233 | -104.68507 | 5364 ft | 18 kts | 180° |
| 2026-05-07 21:33 | 39.86089 | -104.68507 | 5364 ft | 22 kts | 180° |
| 2026-05-07 21:33 | 39.85938 | -104.68511 | 5365 ft | 22 kts | 180° |
| 2026-05-07 21:33 | 39.85790 | -104.68514 | 5366 ft | 21 kts | 181° |
| 2026-05-07 21:33 | 39.85645 | -104.68515 | 5369 ft | 20 kts | 179° |
| 2026-05-07 21:34 | 39.85507 | -104.68518 | 5372 ft | 19 kts | 181° |
| 2026-05-07 21:34 | 39.85375 | -104.68529 | 5372 ft | 19 kts | 182° |
| 2026-05-07 21:34 | 39.85251 | -104.68526 | 5374 ft | 17 kts | 184° |
| 2026-05-07 21:34 | 39.85205 | -104.68632 | 5370 ft | 17 kts | 268° |
| 2026-05-07 21:35 | 39.85201 | -104.68815 | 5363 ft | 23 kts | 268° |
| 2026-05-07 21:35 | 39.85196 | -104.69055 | 5353 ft | 29 kts | 268° |
| 2026-05-07 21:35 | 39.85198 | -104.69237 | 5345 ft | 13 kts | 271° |
| 2026-05-07 21:35 | 39.85201 | -104.69378 | 5340 ft | 18 kts | 271° |
| 2026-05-07 21:36 | 39.85203 | -104.69529 | 5334 ft | 13 kts | 271° |
| 2026-05-07 21:36 | 39.85228 | -104.69639 | 5335 ft | 13 kts | 320° |
| 2026-05-07 21:36 | 39.85334 | -104.69658 | 5336 ft | 30 kts | 359° |
| 2026-05-07 21:36 | 39.85814 | -104.69653 | 5340 ft | 105 kts | 0° |
| 2026-05-07 21:37 | 39.86749 | -104.69645 | 5336 ft | 161 kts | 360° |
| 2026-05-07 21:37 | 39.88006 | -104.69606 | 5613 ft | 189 kts | 359° |
| 2026-05-07 21:37 | 39.89323 | -104.69559 | 6430 ft | 190 kts | 353° |
| 2026-05-07 21:37 | 39.90729 | -104.69522 | 6627 ft | 216 kts | 4° |
| 2026-05-07 21:38 | 39.92169 | -104.68616 | 6889 ft | 251 kts | 41° |
| 2026-05-07 21:38 | 39.93168 | -104.66591 | 7184 ft | 281 kts | 60° |
| 2026-05-07 21:38 | 39.94012 | -104.64193 | 7643 ft | 297 kts | 63° |
| 2026-05-07 21:38 | 39.94792 | -104.61663 | 8360 ft | 305 kts | 71° |
| 2026-05-07 21:39 | 39.95015 | -104.58887 | 9150 ft | 312 kts | 89° |
| 2026-05-07 21:39 | 39.95034 | -104.56048 | 9955 ft | 314 kts | 88° |
| 2026-05-07 21:39 | 39.95092 | -104.53133 | 10322 ft | 333 kts | 86° |
| 2026-05-07 21:39 | 39.95178 | -104.50061 | 10541 ft | 352 kts | 86° |
| 2026-05-07 21:40 | 39.95278 | -104.46786 | 11057 ft | 361 kts | 86° |
| 2026-05-07 21:40 | 39.95376 | -104.43546 | 11686 ft | 364 kts | 86° |
| 2026-05-07 21:40 | 39.95394 | -104.40184 | 12340 ft | 369 kts | 96° |
| 2026-05-07 21:40 | 39.94823 | -104.36951 | 12945 ft | 373 kts | 105° |
| 2026-05-07 21:41 | 39.94126 | -104.33682 | 13592 ft | 376 kts | 105° |
| 2026-05-07 21:41 | 39.93407 | -104.30391 | 14162 ft | 379 kts | 105° |
| 2026-05-07 21:41 | 39.92677 | -104.27070 | 14707 ft | 383 kts | 105° |
| 2026-05-07 21:41 | 39.91943 | -104.23723 | 15249 ft | 386 kts | 105° |
| 2026-05-07 21:42 | 39.91287 | -104.20317 | 15770 ft | 390 kts | 99° |
| 2026-05-07 21:42 | 39.90803 | -104.16828 | 16300 ft | 393 kts | 99° |
| 2026-05-07 21:42 | 39.90317 | -104.13306 | 16819 ft | 396 kts | 99° |
| 2026-05-07 21:42 | 39.89825 | -104.09760 | 17340 ft | 400 kts | 99° |
| 2026-05-07 21:43 | 39.89325 | -104.06177 | 17869 ft | 404 kts | 99° |
| 2026-05-07 21:43 | 39.88819 | -104.02567 | 18374 ft | 407 kts | 99° |
| 2026-05-07 21:43 | 39.88305 | -103.98929 | 18843 ft | 411 kts | 99° |
| 2026-05-07 21:43 | 39.87781 | -103.95248 | 19325 ft | 415 kts | 99° |
| 2026-05-07 21:44 | 39.87355 | -103.91523 | 19774 ft | 418 kts | 92° |
| 2026-05-07 21:44 | 39.87381 | -103.87744 | 20246 ft | 419 kts | 82° |
| 2026-05-07 21:44 | 39.87656 | -103.83955 | 20682 ft | 422 kts | 82° |
| 2026-05-07 21:44 | 39.87931 | -103.80134 | 21115 ft | 426 kts | 82° |
| 2026-05-07 21:45 | 39.88201 | -103.76285 | 21545 ft | 429 kts | 82° |
| 2026-05-07 21:45 | 39.88473 | -103.72448 | 21965 ft | 432 kts | 81° |
| 2026-05-07 21:45 | 39.88832 | -103.68547 | 22410 ft | 434 kts | 79° |
| 2026-05-07 21:45 | 39.89273 | -103.64643 | 22846 ft | 437 kts | 78° |
| 2026-05-07 21:46 | 39.89760 | -103.60726 | 23276 ft | 440 kts | 77° |
| 2026-05-07 21:46 | 39.90261 | -103.56784 | 23661 ft | 443 kts | 77° |
| 2026-05-07 21:46 | 39.90755 | -103.52816 | 24021 ft | 445 kts | 78° |
| 2026-05-07 21:46 | 39.91235 | -103.48824 | 24394 ft | 448 kts | 78° |
| 2026-05-07 21:47 | 39.91699 | -103.44796 | 24759 ft | 450 kts | 78° |
| 2026-05-07 21:47 | 39.92151 | -103.40749 | 25130 ft | 453 kts | 78° |
| 2026-05-07 21:47 | 39.92599 | -103.36684 | 25490 ft | 455 kts | 78° |
| 2026-05-07 21:47 | 39.93049 | -103.32591 | 25852 ft | 458 kts | 78° |
| 2026-05-07 21:48 | 39.93506 | -103.28474 | 26208 ft | 460 kts | 78° |
| 2026-05-07 21:48 | 39.93967 | -103.24339 | 26550 ft | 463 kts | 77° |
| 2026-05-07 21:48 | 39.94431 | -103.20178 | 26889 ft | 465 kts | 77° |
| 2026-05-07 21:48 | 39.94896 | -103.15998 | 27220 ft | 468 kts | 77° |
| 2026-05-07 21:49 | 39.95362 | -103.11797 | 27545 ft | 470 kts | 77° |
| 2026-05-07 21:49 | 39.95829 | -103.07555 | 27868 ft | 473 kts | 77° |
| 2026-05-07 21:49 | 39.96297 | -103.03304 | 28201 ft | 475 kts | 77° |
| 2026-05-07 21:49 | 39.96764 | -102.99026 | 28529 ft | 478 kts | 77° |
| 2026-05-07 21:50 | 39.97225 | -102.94782 | 28844 ft | 481 kts | 77° |
| 2026-05-07 21:50 | 39.97695 | -102.90455 | 29168 ft | 483 kts | 77° |
| 2026-05-07 21:50 | 39.98167 | -102.86105 | 29483 ft | 486 kts | 77° |
| 2026-05-07 21:50 | 39.98641 | -102.81732 | 29801 ft | 489 kts | 77° |
| 2026-05-07 21:51 | 39.99115 | -102.77335 | 30183 ft | 489 kts | 77° |
| 2026-05-07 21:51 | 39.99583 | -102.72956 | 30583 ft | 488 kts | 77° |
| 2026-05-07 21:51 | 40.00048 | -102.68576 | 30979 ft | 487 kts | 77° |
| 2026-05-07 21:51 | 40.00508 | -102.64200 | 31379 ft | 486 kts | 77° |
| 2026-05-07 21:52 | 40.00962 | -102.59840 | 31776 ft | 485 kts | 77° |
| 2026-05-07 21:52 | 40.01419 | -102.55473 | 32171 ft | 484 kts | 77° |
| 2026-05-07 21:52 | 40.01877 | -102.51129 | 32572 ft | 484 kts | 77° |
| 2026-05-07 21:52 | 40.02330 | -102.46839 | 32979 ft | 483 kts | 77° |
| 2026-05-07 21:53 | 40.02786 | -102.42498 | 33370 ft | 482 kts | 77° |
| 2026-05-07 21:53 | 40.03237 | -102.38165 | 33776 ft | 482 kts | 77° |
| 2026-05-07 21:53 | 40.03685 | -102.33843 | 34129 ft | 481 kts | 77° |
| 2026-05-07 21:53 | 40.04132 | -102.29515 | 34440 ft | 481 kts | 77° |
| 2026-05-07 21:54 | 40.04575 | -102.25191 | 34728 ft | 481 kts | 77° |
| 2026-05-07 21:54 | 40.05015 | -102.20863 | 35007 ft | 481 kts | 78° |
| 2026-05-07 21:54 | 40.05454 | -102.16534 | 35276 ft | 481 kts | 78° |
| 2026-05-07 21:54 | 40.05893 | -102.12195 | 35538 ft | 482 kts | 78° |
| 2026-05-07 21:55 | 40.06329 | -102.07861 | 35801 ft | 482 kts | 78° |
| 2026-05-07 21:55 | 40.06766 | -102.03519 | 35903 ft | 485 kts | 78° |
| 2026-05-07 21:55 | 40.07648 | -101.94741 | 35917 ft | 488 kts | 79° |
| 2026-05-07 21:56 | 40.08523 | -101.85943 | 35922 ft | 489 kts | 79° |
| 2026-05-07 21:56 | 40.09395 | -101.77132 | 35923 ft | 489 kts | 79° |
| 2026-05-07 21:57 | 40.10258 | -101.68317 | 35915 ft | 490 kts | 79° |
| 2026-05-07 21:57 | 40.11105 | -101.59547 | 35915 ft | 490 kts | 79° |
| 2026-05-07 21:58 | 40.11952 | -101.50701 | 35920 ft | 491 kts | 80° |
| 2026-05-07 21:58 | 40.12800 | -101.41841 | 35919 ft | 491 kts | 80° |
| 2026-05-07 21:59 | 40.13309 | -101.32931 | 35920 ft | 494 kts | 87° |
| 2026-05-07 21:59 | 40.13406 | -101.23962 | 35921 ft | 494 kts | 87° |
| 2026-05-07 22:00 | 40.13494 | -101.14973 | 35928 ft | 495 kts | 87° |
| 2026-05-07 22:00 | 40.13582 | -101.05975 | 35925 ft | 495 kts | 87° |
| 2026-05-07 22:01 | 40.13668 | -100.96963 | 35926 ft | 496 kts | 88° |
| 2026-05-07 22:01 | 40.13743 | -100.88001 | 35908 ft | 496 kts | 88° |
| 2026-05-07 22:02 | 40.13809 | -100.78979 | 35895 ft | 497 kts | 88° |
| 2026-05-07 22:02 | 40.13872 | -100.69937 | 35925 ft | 498 kts | 88° |
| 2026-05-07 22:03 | 40.13919 | -100.60873 | 35925 ft | 499 kts | 88° |
| 2026-05-07 22:03 | 40.13964 | -100.51793 | 35931 ft | 499 kts | 88° |
| 2026-05-07 22:04 | 40.14005 | -100.42709 | 35923 ft | 500 kts | 88° |
| 2026-05-07 22:04 | 40.14031 | -100.33620 | 35925 ft | 500 kts | 88° |
| 2026-05-07 22:05 | 40.14059 | -100.24519 | 35910 ft | 501 kts | 89° |
| 2026-05-07 22:05 | 40.14081 | -100.15421 | 35915 ft | 501 kts | 89° |
| 2026-05-07 22:06 | 40.14093 | -100.06310 | 35908 ft | 501 kts | 89° |
| 2026-05-07 22:06 | 40.14099 | -99.97205 | 35911 ft | 501 kts | 89° |
| 2026-05-07 22:07 | 40.14093 | -99.88088 | 35902 ft | 502 kts | 89° |
| 2026-05-07 22:07 | 40.14081 | -99.78968 | 35906 ft | 502 kts | 89° |
| 2026-05-07 22:08 | 40.14062 | -99.69904 | 35898 ft | 502 kts | 89° |
| 2026-05-07 22:08 | 40.14040 | -99.60780 | 35907 ft | 503 kts | 90° |
| 2026-05-07 22:09 | 40.14006 | -99.51639 | 35906 ft | 503 kts | 90° |
| 2026-05-07 22:09 | 40.13970 | -99.42489 | 35912 ft | 504 kts | 90° |
| 2026-05-07 22:10 | 40.13924 | -99.33329 | 35908 ft | 504 kts | 90° |
| 2026-05-07 22:10 | 40.13869 | -99.24165 | 35909 ft | 505 kts | 90° |
| 2026-05-07 22:11 | 40.13810 | -99.15043 | 35907 ft | 505 kts | 90° |
| 2026-05-07 22:11 | 40.13737 | -99.05858 | 35907 ft | 506 kts | 90° |
| 2026-05-07 22:12 | 40.13671 | -98.98203 | 35901 ft | 506 kts | 90° |
| 2026-05-07 22:12 | 40.13591 | -98.89006 | 35898 ft | 507 kts | 90° |
| 2026-05-07 22:13 | 40.13506 | -98.79784 | 35902 ft | 508 kts | 91° |
| 2026-05-07 22:13 | 40.13404 | -98.70571 | 35900 ft | 508 kts | 91° |
| 2026-05-07 22:14 | 40.13301 | -98.61314 | 35902 ft | 509 kts | 91° |
| 2026-05-07 22:14 | 40.13197 | -98.52063 | 35899 ft | 510 kts | 91° |
| 2026-05-07 22:15 | 40.13073 | -98.42797 | 35908 ft | 510 kts | 91° |
| 2026-05-07 22:15 | 40.12940 | -98.33527 | 35899 ft | 511 kts | 91° |
| 2026-05-07 22:16 | 40.12807 | -98.24238 | 35902 ft | 511 kts | 91° |
| 2026-05-07 22:16 | 40.12671 | -98.14937 | 35896 ft | 512 kts | 91° |
| 2026-05-07 22:17 | 40.12520 | -98.05631 | 35902 ft | 513 kts | 91° |
| 2026-05-07 22:17 | 40.12362 | -97.96304 | 35897 ft | 513 kts | 92° |
| 2026-05-07 22:18 | 40.12108 | -97.82360 | 35898 ft | 514 kts | 92° |
| 2026-05-07 22:19 | 40.11933 | -97.73007 | 35903 ft | 515 kts | 92° |
| 2026-05-07 22:19 | 40.11748 | -97.63661 | 35733 ft | 514 kts | 92° |
| 2026-05-07 22:19 | 40.11654 | -97.59006 | 35308 ft | 511 kts | 92° |
| 2026-05-07 22:20 | 40.11559 | -97.54376 | 34903 ft | 508 kts | 92° |
| 2026-05-07 22:20 | 40.11464 | -97.49772 | 34502 ft | 505 kts | 92° |
| 2026-05-07 22:20 | 40.11365 | -97.45201 | 34108 ft | 502 kts | 92° |
| 2026-05-07 22:20 | 40.11262 | -97.40646 | 33581 ft | 502 kts | 92° |
| 2026-05-07 22:21 | 40.11159 | -97.36082 | 32960 ft | 502 kts | 92° |
| 2026-05-07 22:21 | 40.11054 | -97.31522 | 32364 ft | 503 kts | 92° |
| 2026-05-07 22:21 | 40.10948 | -97.26967 | 31763 ft | 500 kts | 92° |
| 2026-05-07 22:21 | 40.10845 | -97.22478 | 31177 ft | 489 kts | 92° |
| 2026-05-07 22:22 | 40.10744 | -97.18085 | 30615 ft | 479 kts | 92° |
| 2026-05-07 22:22 | 40.10641 | -97.13788 | 30060 ft | 470 kts | 92° |
| 2026-05-07 22:22 | 40.10537 | -97.09608 | 29437 ft | 463 kts | 92° |
| 2026-05-07 22:22 | 40.10430 | -97.05382 | 28783 ft | 457 kts | 92° |
| 2026-05-07 22:23 | 40.10325 | -97.01301 | 28183 ft | 456 kts | 92° |
| 2026-05-07 22:23 | 40.10217 | -96.97154 | 27561 ft | 458 kts | 91° |
| 2026-05-07 22:23 | 40.10110 | -96.92997 | 27122 ft | 455 kts | 91° |
| 2026-05-07 22:23 | 40.10004 | -96.88882 | 26757 ft | 451 kts | 91° |
| 2026-05-07 22:24 | 40.09898 | -96.84807 | 26410 ft | 447 kts | 91° |
| 2026-05-07 22:24 | 40.09787 | -96.80764 | 26052 ft | 443 kts | 91° |
| 2026-05-07 22:24 | 40.09676 | -96.76760 | 25699 ft | 439 kts | 91° |
| 2026-05-07 22:24 | 40.09565 | -96.72789 | 25356 ft | 435 kts | 91° |
| 2026-05-07 22:25 | 40.09454 | -96.68854 | 25025 ft | 432 kts | 91° |
| 2026-05-07 22:25 | 40.09344 | -96.64958 | 24687 ft | 428 kts | 91° |
| 2026-05-07 22:25 | 40.09231 | -96.61095 | 24359 ft | 424 kts | 91° |
| 2026-05-07 22:25 | 40.09054 | -96.57270 | 24039 ft | 421 kts | 97° |
| 2026-05-07 22:26 | 40.08437 | -96.53556 | 23713 ft | 417 kts | 107° |
| 2026-05-07 22:26 | 40.07632 | -96.49935 | 23383 ft | 414 kts | 107° |
| 2026-05-07 22:26 | 40.06835 | -96.46337 | 22999 ft | 411 kts | 106° |
| 2026-05-07 22:26 | 40.06056 | -96.42808 | 22614 ft | 409 kts | 106° |
| 2026-05-07 22:27 | 40.05257 | -96.39205 | 22245 ft | 406 kts | 106° |
| 2026-05-07 22:27 | 40.04483 | -96.35721 | 21883 ft | 404 kts | 106° |
| 2026-05-07 22:27 | 40.03704 | -96.32209 | 21512 ft | 402 kts | 106° |
| 2026-05-07 22:27 | 40.02932 | -96.28720 | 21152 ft | 399 kts | 106° |
| 2026-05-07 22:28 | 40.02164 | -96.25252 | 20805 ft | 397 kts | 106° |
| 2026-05-07 22:28 | 40.01391 | -96.21765 | 20445 ft | 394 kts | 106° |
| 2026-05-07 22:28 | 40.00638 | -96.18382 | 20098 ft | 391 kts | 106° |
| 2026-05-07 22:28 | 39.99878 | -96.14985 | 19757 ft | 389 kts | 106° |
| 2026-05-07 22:29 | 39.99118 | -96.11603 | 19413 ft | 387 kts | 106° |
| 2026-05-07 22:29 | 39.98364 | -96.08253 | 19079 ft | 384 kts | 106° |
| 2026-05-07 22:29 | 39.97612 | -96.04924 | 18746 ft | 382 kts | 106° |
| 2026-05-07 22:29 | 39.96864 | -96.01611 | 18415 ft | 379 kts | 106° |
| 2026-05-07 22:30 | 39.96124 | -95.98323 | 18078 ft | 377 kts | 106° |
| 2026-05-07 22:30 | 39.95386 | -95.95052 | 17703 ft | 375 kts | 106° |
| 2026-05-07 22:30 | 39.94652 | -95.91805 | 17319 ft | 372 kts | 105° |
| 2026-05-07 22:30 | 39.93923 | -95.88579 | 16953 ft | 370 kts | 105° |
| 2026-05-07 22:31 | 39.93196 | -95.85372 | 16593 ft | 368 kts | 105° |
| 2026-05-07 22:31 | 39.92474 | -95.82187 | 16228 ft | 366 kts | 105° |
| 2026-05-07 22:31 | 39.91752 | -95.79015 | 15873 ft | 364 kts | 105° |
| 2026-05-07 22:31 | 39.91046 | -95.75907 | 15526 ft | 362 kts | 105° |
| 2026-05-07 22:32 | 39.90333 | -95.72777 | 15180 ft | 360 kts | 105° |
| 2026-05-07 22:32 | 39.89624 | -95.69670 | 14831 ft | 358 kts | 105° |
| 2026-05-07 22:32 | 39.88918 | -95.66569 | 14495 ft | 356 kts | 105° |
| 2026-05-07 22:32 | 39.88217 | -95.63493 | 14154 ft | 354 kts | 105° |
| 2026-05-07 22:33 | 39.87516 | -95.60430 | 13826 ft | 352 kts | 105° |
| 2026-05-07 22:33 | 39.86817 | -95.57383 | 13473 ft | 350 kts | 105° |
| 2026-05-07 22:33 | 39.86120 | -95.54355 | 13092 ft | 348 kts | 105° |
| 2026-05-07 22:33 | 39.85427 | -95.51345 | 12724 ft | 347 kts | 105° |
| 2026-05-07 22:34 | 39.84734 | -95.48343 | 12366 ft | 345 kts | 105° |
| 2026-05-07 22:34 | 39.84044 | -95.45358 | 11998 ft | 343 kts | 105° |
| 2026-05-07 22:34 | 39.83357 | -95.42392 | 11642 ft | 341 kts | 105° |
| 2026-05-07 22:34 | 39.82675 | -95.39444 | 11305 ft | 339 kts | 106° |
| 2026-05-07 22:35 | 39.81774 | -95.36657 | 11124 ft | 332 kts | 120° |
| 2026-05-07 22:35 | 39.80426 | -95.34238 | 10831 ft | 329 kts | 134° |
| 2026-05-07 22:35 | 39.78788 | -95.32193 | 10590 ft | 324 kts | 138° |
| 2026-05-07 22:35 | 39.77182 | -95.30232 | 10377 ft | 319 kts | 138° |
| 2026-05-07 22:36 | 39.75583 | -95.28267 | 10158 ft | 314 kts | 137° |
| 2026-05-07 22:36 | 39.74008 | -95.26326 | 9935 ft | 310 kts | 137° |
| 2026-05-07 22:36 | 39.72452 | -95.24411 | 9717 ft | 306 kts | 137° |
| 2026-05-07 22:36 | 39.70915 | -95.22524 | 9476 ft | 303 kts | 137° |
| 2026-05-07 22:37 | 39.69394 | -95.20658 | 9234 ft | 299 kts | 138° |
| 2026-05-07 22:37 | 39.67887 | -95.18811 | 8998 ft | 296 kts | 138° |
| 2026-05-07 22:37 | 39.66398 | -95.16987 | 8755 ft | 292 kts | 138° |
| 2026-05-07 22:37 | 39.64927 | -95.15184 | 8521 ft | 289 kts | 138° |
| 2026-05-07 22:38 | 39.63471 | -95.13402 | 8289 ft | 287 kts | 138° |
| 2026-05-07 22:38 | 39.62024 | -95.11635 | 8060 ft | 284 kts | 138° |
| 2026-05-07 22:38 | 39.60646 | -95.09816 | 7818 ft | 283 kts | 129° |
| 2026-05-07 22:38 | 39.59595 | -95.07675 | 7596 ft | 280 kts | 115° |
| 2026-05-07 22:39 | 39.58915 | -95.05361 | 7373 ft | 277 kts | 108° |
| 2026-05-07 22:39 | 39.58284 | -95.03015 | 7139 ft | 275 kts | 109° |
| 2026-05-07 22:39 | 39.57649 | -95.00687 | 6922 ft | 273 kts | 109° |
| 2026-05-07 22:39 | 39.57014 | -94.98381 | 6698 ft | 270 kts | 109° |
| 2026-05-07 22:40 | 39.56385 | -94.96100 | 6464 ft | 268 kts | 109° |
| 2026-05-07 22:40 | 39.55759 | -94.93829 | 6252 ft | 266 kts | 110° |
| 2026-05-07 22:40 | 39.55140 | -94.91586 | 6017 ft | 263 kts | 109° |
| 2026-05-07 22:40 | 39.54528 | -94.89363 | 5766 ft | 260 kts | 109° |
| 2026-05-07 22:41 | 39.53921 | -94.87159 | 5516 ft | 259 kts | 109° |
| 2026-05-07 22:41 | 39.53319 | -94.84967 | 5257 ft | 258 kts | 109° |
| 2026-05-07 22:41 | 39.52723 | -94.82774 | 5015 ft | 258 kts | 109° |
| 2026-05-07 22:41 | 39.52131 | -94.80584 | 4763 ft | 256 kts | 109° |
| 2026-05-07 22:42 | 39.51546 | -94.78414 | 4500 ft | 255 kts | 109° |
| 2026-05-07 22:42 | 39.50964 | -94.76257 | 4252 ft | 253 kts | 109° |
| 2026-05-07 22:42 | 39.50388 | -94.74130 | 3985 ft | 247 kts | 110° |
| 2026-05-07 22:42 | 39.49577 | -94.72261 | 3740 ft | 238 kts | 133° |
| 2026-05-07 22:43 | 39.48561 | -94.71160 | 3514 ft | 233 kts | 153° |
| 2026-05-07 22:43 | 39.47063 | -94.70466 | 3266 ft | 227 kts | 175° |
| 2026-05-07 22:43 | 39.45506 | -94.70234 | 3071 ft | 223 kts | 177° |
| 2026-05-07 22:43 | 39.43998 | -94.70005 | 2994 ft | 213 kts | 176° |
| 2026-05-07 22:44 | 39.42605 | -94.69791 | 3017 ft | 189 kts | 177° |
| 2026-05-07 22:44 | 39.41386 | -94.69598 | 3024 ft | 168 kts | 178° |
| 2026-05-07 22:44 | 39.40268 | -94.69685 | 2737 ft | 158 kts | 197° |
| 2026-05-07 22:44 | 39.39216 | -94.70000 | 2404 ft | 153 kts | 197° |
| 2026-05-07 22:45 | 39.38181 | -94.70309 | 2160 ft | 153 kts | 196° |
| 2026-05-07 22:45 | 39.37148 | -94.70617 | 1940 ft | 152 kts | 197° |
| 2026-05-07 22:45 | 39.36118 | -94.70923 | 1748 ft | 150 kts | 196° |
| 2026-05-07 22:45 | 39.35131 | -94.71215 | 1585 ft | 145 kts | 194° |
| 2026-05-07 22:46 | 39.34169 | -94.71500 | 1416 ft | 140 kts | 194° |
| 2026-05-07 22:46 | 39.33223 | -94.71780 | 1245 ft | 138 kts | 192° |
| 2026-05-07 22:46 | 39.32299 | -94.72053 | 1063 ft | 135 kts | 193° |
| 2026-05-07 22:46 | 39.31472 | -94.72299 | 1001 ft | 101 kts | 194° |
| 2026-05-07 22:47 | 39.31001 | -94.72430 | 1003 ft | 36 kts | 187° |
| 2026-05-07 22:47 | 39.30838 | -94.72414 | 1004 ft | 14 kts | 158° |
| 2026-05-07 22:47 | 39.30803 | -94.72395 | 1005 ft | 0 kts | 156° |
| 2026-05-07 22:47 | 39.30801 | -94.72394 | 1005 ft | 2 kts | 156° |
| 2026-05-07 22:48 | 39.30759 | -94.72366 | 1006 ft | 8 kts | 146° |
| 2026-05-07 22:48 | 39.30724 | -94.72302 | 1006 ft | 10 kts | 115° |
| 2026-05-07 22:48 | 39.30671 | -94.72262 | 1006 ft | 10 kts | 185° |
| 2026-05-07 22:48 | 39.30610 | -94.72278 | 1007 ft | 9 kts | 194° |
| 2026-05-07 22:49 | 39.30542 | -94.72299 | 1008 ft | 12 kts | 193° |
| 2026-05-07 22:49 | 39.30448 | -94.72328 | 1009 ft | 16 kts | 193° |
| 2026-05-07 22:49 | 39.30344 | -94.72359 | 1010 ft | 11 kts | 192° |
| 2026-05-07 22:49 | 39.30269 | -94.72362 | 1011 ft | 11 kts | 146° |
| 2026-05-07 22:50 | 39.30243 | -94.72266 | 1011 ft | 12 kts | 103° |
| 2026-05-07 22:50 | 39.30224 | -94.72161 | 1012 ft | 6 kts | 104° |
| 2026-05-07 22:50 | 39.30201 | -94.72109 | 1012 ft | 7 kts | 141° |
| 2026-05-07 22:50 | 39.30166 | -94.72100 | 1012 ft | 0 kts | 185° |
| 2026-05-07 22:51 | 39.30159 | -94.72102 | 1012 ft | 2 kts | 191° |
| 2026-05-07 22:51 | 39.30136 | -94.72107 | 1012 ft | 5 kts | 185° |
| 2026-05-07 22:51 | 39.30100 | -94.72108 | 1013 ft | 5 kts | 204° |
| 2026-05-07 22:51 | 39.30082 | -94.72144 | 1013 ft | 0 kts | 258° |